createdAt,value
2022-12-08T00:01:39.533Z,3.17
2022-12-08T00:04:07.145Z,3.23
2022-12-08T00:07:12.083Z,3.22
2022-12-08T00:09:42.090Z,3.17
2022-12-08T00:12:11.617Z,3.16
2022-12-08T00:14:40.547Z,3.13
2022-12-08T00:17:10.023Z,3.08
2022-12-08T00:19:37.459Z,3.03
2022-12-08T00:22:05.144Z,2.98
2022-12-08T00:24:34.833Z,3.01
2022-12-08T00:27:03.193Z,3.08
2022-12-08T00:29:30.194Z,3.05
2022-12-08T00:31:57.283Z,3.08
2022-12-08T00:34:24.240Z,3.16
2022-12-08T00:36:51.201Z,3.13
2022-12-08T00:39:18.382Z,3.15
2022-12-08T00:42:03.438Z,3.10
2022-12-08T00:44:31.671Z,3.07
2022-12-08T00:46:58.695Z,3.03
2022-12-08T00:49:25.535Z,2.94
2022-12-08T00:51:52.789Z,2.80
2022-12-08T00:54:20.029Z,2.79
2022-12-08T00:56:46.910Z,2.76
2022-12-08T00:59:14.861Z,2.75
2022-12-08T01:01:44.376Z,2.74
2022-12-08T01:04:15.828Z,2.72
2022-12-08T01:06:43.888Z,2.76
2022-12-08T01:09:13.219Z,2.69
2022-12-08T01:11:40.068Z,2.68
2022-12-08T01:14:06.898Z,2.62
2022-12-08T01:16:36.283Z,2.61
2022-12-08T01:19:04.875Z,2.57
2022-12-08T01:21:31.727Z,2.47
2022-12-08T01:24:00.551Z,2.47
2022-12-08T01:26:27.565Z,2.42
2022-12-08T01:28:54.702Z,2.41
2022-12-08T01:31:22.684Z,2.38
2022-12-08T01:33:50.165Z,2.41
2022-12-08T01:36:22.432Z,2.42
2022-12-08T01:38:49.379Z,2.42
2022-12-08T01:41:18.151Z,2.46
2022-12-08T01:43:56.780Z,2.43
2022-12-08T01:46:24.185Z,2.40
2022-12-08T01:48:54.559Z,2.39
2022-12-08T01:51:22.994Z,2.46
2022-12-08T01:53:50.211Z,2.55
2022-12-08T01:56:24.272Z,2.64
2022-12-08T01:58:53.492Z,2.68
2022-12-08T02:01:20.469Z,2.73
2022-12-08T02:03:52.056Z,2.81
2022-12-08T02:06:19.899Z,2.90
2022-12-08T02:08:49.840Z,3.02
2022-12-08T02:11:16.773Z,3.06
2022-12-08T02:13:46.211Z,3.22
2022-12-08T02:16:25.673Z,3.26
2022-12-08T02:19:29.832Z,3.27
2022-12-08T02:21:57.071Z,3.34
2022-12-08T02:24:33.279Z,3.36
2022-12-08T02:27:22.885Z,3.37
2022-12-08T02:30:04.878Z,3.38
2022-12-08T02:33:10.113Z,3.42
2022-12-08T02:35:43.177Z,3.39
2022-12-08T02:38:21.671Z,3.39
2022-12-08T02:40:58.432Z,3.38
2022-12-08T02:43:29.905Z,3.38
2022-12-08T02:46:02.138Z,3.36
2022-12-08T02:48:29.719Z,3.33
2022-12-08T02:50:57.911Z,3.29
2022-12-08T02:53:24.897Z,3.32
2022-12-08T02:56:01.682Z,3.31
2022-12-08T02:58:50.507Z,3.29
2022-12-08T03:01:44.625Z,3.31
2022-12-08T03:04:26.356Z,3.28
2022-12-08T03:06:59.288Z,3.28
2022-12-08T03:09:35.015Z,3.22
2022-12-08T03:12:13.307Z,3.22
2022-12-08T03:14:45.609Z,3.28
2022-12-08T03:17:14.980Z,3.22
2022-12-08T03:19:43.354Z,3.16
2022-12-08T03:22:13.530Z,3.14
2022-12-08T03:24:43.888Z,3.03
2022-12-08T03:27:14.863Z,2.96
2022-12-08T03:29:41.740Z,3.02
2022-12-08T03:32:14.070Z,2.95
2022-12-08T03:34:44.213Z,2.96
2022-12-08T03:37:12.696Z,3.01
2022-12-08T03:39:39.841Z,3.08
2022-12-08T03:42:06.622Z,3.10
2022-12-08T03:44:33.412Z,3.07
2022-12-08T03:47:00.270Z,3.14
2022-12-08T03:49:27.235Z,3.17
2022-12-08T03:51:54.140Z,3.16
2022-12-08T03:54:23.434Z,3.15
2022-12-08T03:56:50.281Z,3.09
2022-12-08T03:59:17.141Z,3.06
2022-12-08T04:01:44.038Z,3.03
2022-12-08T04:04:11.189Z,2.99
2022-12-08T04:06:37.999Z,2.99
2022-12-08T04:09:04.810Z,3.00
2022-12-08T04:11:33.004Z,3.00
2022-12-08T04:13:59.828Z,3.01
2022-12-08T04:16:27.999Z,2.96
2022-12-08T04:18:55.021Z,2.99
2022-12-08T04:21:22.339Z,3.05
2022-12-08T04:23:49.527Z,3.06
2022-12-08T04:26:16.721Z,3.06
2022-12-08T04:28:45.145Z,3.04
2022-12-08T04:31:12.187Z,2.96
2022-12-08T04:33:39.266Z,2.96
2022-12-08T04:36:07.381Z,3.03
2022-12-08T04:38:34.631Z,2.98
2022-12-08T04:41:01.906Z,3.02
2022-12-08T04:43:28.784Z,3.02
2022-12-08T04:45:57.037Z,3.02
2022-12-08T04:48:23.943Z,3.04
2022-12-08T04:50:51.622Z,3.07
2022-12-08T04:53:19.902Z,3.06
2022-12-08T04:55:48.783Z,3.06
2022-12-08T04:58:17.709Z,3.11
2022-12-08T05:00:45.597Z,3.12
2022-12-08T05:03:14.759Z,3.19
2022-12-08T05:05:42.216Z,3.19
2022-12-08T05:08:10.107Z,3.21
2022-12-08T05:10:37.402Z,3.22
2022-12-08T05:13:04.277Z,3.20
2022-12-08T05:15:31.129Z,3.21
2022-12-08T05:17:57.937Z,3.21
2022-12-08T05:20:26.162Z,3.23
2022-12-08T05:22:53.175Z,3.25
2022-12-08T05:25:20.188Z,3.23
2022-12-08T05:27:47.009Z,3.26
2022-12-08T05:30:14.198Z,3.32
2022-12-08T05:32:41.029Z,3.29
2022-12-08T05:35:08.797Z,3.27
2022-12-08T05:37:37.251Z,3.30
2022-12-08T05:40:04.723Z,3.33
2022-12-08T05:42:31.776Z,3.28
2022-12-08T05:44:58.645Z,3.34
2022-12-08T05:47:25.421Z,3.34
2022-12-08T05:49:52.287Z,3.35
2022-12-08T05:52:19.150Z,3.34
2022-12-08T05:55:22.364Z,3.36
2022-12-08T05:57:39.486Z,3.27
2022-12-08T06:00:07.896Z,3.26
2022-12-08T06:02:35.824Z,3.24
2022-12-08T06:05:02.927Z,3.27
2022-12-08T06:07:29.774Z,3.33
2022-12-08T06:09:57.917Z,3.32
2022-12-08T06:12:24.817Z,3.34
2022-12-08T06:17:33.340Z,3.27
2022-12-08T06:20:00.229Z,3.33
2022-12-08T06:22:27.020Z,3.33
2022-12-08T06:24:53.876Z,3.34
2022-12-08T06:27:22.056Z,3.26
2022-12-08T06:29:48.893Z,3.33
2022-12-08T06:32:15.813Z,3.35
2022-12-08T06:34:42.726Z,3.31
2022-12-08T06:37:09.641Z,3.29
2022-12-08T06:39:36.723Z,3.22
2022-12-08T06:42:22.379Z,3.25
2022-12-08T06:44:50.835Z,3.23
2022-12-08T06:47:20.038Z,3.16
2022-12-08T06:49:50.132Z,3.21
2022-12-08T06:52:16.961Z,3.23
2022-12-08T06:54:43.895Z,3.15
2022-12-08T06:57:10.991Z,3.13
2022-12-08T06:59:39.187Z,3.07
2022-12-08T07:02:07.383Z,3.03
2022-12-08T07:04:34.241Z,2.93
2022-12-08T07:07:01.162Z,2.90
2022-12-08T07:09:28.472Z,2.90
2022-12-08T07:11:55.305Z,2.88
2022-12-08T07:14:24.913Z,2.90
2022-12-08T07:16:52.321Z,2.88
2022-12-08T07:19:20.719Z,2.88
2022-12-08T07:21:47.621Z,2.88
2022-12-08T07:24:14.574Z,2.78
2022-12-08T07:26:41.713Z,2.79
2022-12-08T07:29:10.345Z,2.80
2022-12-08T07:31:37.574Z,2.78
2022-12-08T07:34:04.778Z,2.78
2022-12-08T07:36:33.043Z,2.78
2022-12-08T07:39:00.128Z,2.77
2022-12-08T07:41:27.178Z,2.78
2022-12-08T07:43:54.318Z,2.79
2022-12-08T07:46:23.031Z,2.86
2022-12-08T07:48:50.319Z,2.88
2022-12-08T07:51:17.549Z,2.86
2022-12-08T07:53:53.414Z,2.90
2022-12-08T07:56:22.036Z,2.93
2022-12-08T07:58:48.843Z,2.96
2022-12-08T08:01:20.648Z,2.98
2022-12-08T08:03:47.721Z,2.99
2022-12-08T08:06:14.777Z,3.03
2022-12-08T08:08:41.579Z,3.05
2022-12-08T08:11:18.944Z,3.13
2022-12-08T08:13:47.925Z,3.11
2022-12-08T08:16:14.982Z,3.18
2022-12-08T08:18:43.519Z,3.20
2022-12-08T08:21:43.165Z,3.26
2022-12-08T08:23:57.142Z,3.25
2022-12-08T08:26:25.320Z,3.26
2022-12-08T08:28:52.421Z,3.33
2022-12-08T08:31:24.789Z,3.33
2022-12-08T08:33:51.752Z,3.35
2022-12-08T08:36:18.722Z,3.34
2022-12-08T08:38:45.579Z,3.36
2022-12-08T08:41:12.395Z,3.33
2022-12-08T08:43:40.718Z,3.36
2022-12-08T08:46:09.041Z,3.38
2022-12-08T08:48:36.364Z,3.40
2022-12-08T08:51:07.996Z,3.38
2022-12-08T08:53:35.261Z,3.41
2022-12-08T08:56:02.983Z,3.44
2022-12-08T08:58:29.979Z,3.47
2022-12-08T09:00:58.249Z,3.44
2022-12-08T09:03:25.041Z,3.51
2022-12-08T09:05:51.956Z,3.55
2022-12-08T09:08:19.050Z,3.57
2022-12-08T09:10:46.004Z,3.63
2022-12-08T09:13:13.009Z,3.71
2022-12-08T09:15:39.970Z,3.72
2022-12-08T09:18:08.255Z,3.79
2022-12-08T09:20:35.665Z,3.88
2022-12-08T09:23:02.651Z,3.92
2022-12-08T09:25:29.546Z,3.93
2022-12-08T09:27:56.568Z,3.89
2022-12-08T09:30:23.514Z,3.78
2022-12-08T09:32:50.415Z,3.80
2022-12-08T09:35:18.620Z,3.72
2022-12-08T09:37:45.436Z,3.76
2022-12-08T09:40:17.799Z,3.76
2022-12-08T09:42:50.796Z,3.58
2022-12-08T09:45:19.151Z,3.56
2022-12-08T09:47:54.328Z,3.52
2022-12-08T09:50:31.356Z,3.49
2022-12-08T09:53:03.978Z,3.42
2022-12-08T09:55:42.478Z,3.40
2022-12-08T09:58:20.741Z,3.34
2022-12-08T10:00:47.836Z,3.41
2022-12-08T10:03:16.829Z,3.54
2022-12-08T10:05:52.063Z,3.64
2022-12-08T10:08:21.304Z,3.80
2022-12-08T10:10:56.947Z,3.92
2022-12-08T10:13:32.129Z,4.00
2022-12-08T10:16:15.106Z,4.09
2022-12-08T10:18:46.136Z,4.21
2022-12-08T10:21:18.831Z,4.23
2022-12-08T10:23:50.103Z,4.30
2022-12-08T10:26:18.875Z,4.41
2022-12-08T10:28:46.032Z,4.40
2022-12-08T10:31:17.938Z,4.57
2022-12-08T10:33:47.164Z,4.59
2022-12-08T10:36:15.443Z,4.64
2022-12-08T10:38:42.244Z,4.72
2022-12-08T10:41:14.204Z,4.74
2022-12-08T10:43:46.342Z,4.82
2022-12-08T10:46:16.157Z,4.92
2022-12-08T10:48:51.818Z,4.99
2022-12-08T10:51:37.691Z,5.00
2022-12-08T10:54:06.200Z,5.16
2022-12-08T10:56:36.161Z,5.32
2022-12-08T11:03:24.483Z,5.78
2022-12-08T11:05:55.683Z,5.67
2022-12-08T11:08:24.287Z,5.64
2022-12-08T11:10:51.327Z,5.62
2022-12-08T11:13:22.155Z,5.49
2022-12-08T11:15:50.634Z,5.51
2022-12-08T11:18:29.536Z,5.39
2022-12-08T11:21:00.368Z,5.52
2022-12-08T11:23:30.272Z,5.49
2022-12-08T11:26:05.274Z,5.57
2022-12-08T11:28:32.338Z,5.40
2022-12-08T11:31:05.208Z,5.53
2022-12-08T11:33:33.383Z,5.43
2022-12-08T11:36:04.887Z,5.59
2022-12-08T11:38:35.381Z,5.56
2022-12-08T11:41:09.467Z,5.69
2022-12-08T11:43:46.100Z,5.87
2022-12-08T11:46:17.858Z,5.74
2022-12-08T11:48:49.912Z,5.73
2022-12-08T11:51:21.700Z,5.81
2022-12-08T11:53:58.593Z,5.77
2022-12-08T11:56:31.320Z,5.95
2022-12-08T11:59:03.158Z,6.17
2022-12-08T12:01:30.204Z,6.17
2022-12-08T12:04:09.676Z,6.54
2022-12-08T12:07:01.606Z,6.79
2022-12-08T12:09:41.815Z,6.56
2022-12-08T12:12:18.191Z,6.53
2022-12-08T12:15:19.923Z,6.23
2022-12-08T12:17:51.475Z,6.04
2022-12-08T12:20:24.230Z,6.03
2022-12-08T12:22:56.395Z,6.09
2022-12-08T12:25:26.697Z,5.98
2022-12-08T12:27:59.397Z,5.87
2022-12-08T12:30:27.983Z,5.73
2022-12-08T12:32:58.848Z,5.54
2022-12-08T12:35:33.017Z,5.65
2022-12-08T12:38:03.973Z,5.49
2022-12-08T12:40:41.970Z,5.43
2022-12-08T12:43:23.938Z,5.51
2022-12-08T12:45:50.904Z,5.59
2022-12-08T12:48:24.684Z,5.56
2022-12-08T12:50:52.573Z,5.70
2022-12-08T12:53:49.181Z,5.99
2022-12-08T12:56:49.788Z,5.91
2022-12-08T12:59:41.135Z,5.74
2022-12-08T13:02:18.466Z,5.28
2022-12-08T13:04:55.537Z,4.74
2022-12-08T13:07:24.619Z,4.46
2022-12-08T13:09:57.918Z,4.30
2022-12-08T13:12:28.189Z,4.15
2022-12-08T13:15:03.367Z,4.16
2022-12-08T13:17:32.017Z,4.32
2022-12-08T13:20:00.472Z,4.36
2022-12-08T13:23:12.094Z,4.29
2022-12-08T13:25:54.797Z,4.12
2022-12-08T13:28:25.913Z,4.08
2022-12-08T13:30:54.105Z,4.12
2022-12-08T13:33:30.775Z,4.14
2022-12-08T13:36:05.635Z,4.07
2022-12-08T13:38:36.148Z,4.13
2022-12-08T13:41:08.125Z,4.28
2022-12-08T13:43:52.448Z,4.26
2022-12-08T13:53:49.338Z,4.31
2022-12-08T13:57:55.387Z,4.20
2022-12-08T14:00:24.238Z,4.13
2022-12-08T14:02:55.892Z,4.08
2022-12-08T14:05:47.524Z,4.01
2022-12-08T14:08:51.040Z,3.91
2022-12-08T14:11:33.476Z,3.86
2022-12-08T14:14:03.437Z,3.74
2022-12-08T14:16:39.162Z,3.61
2022-12-08T14:19:14.898Z,3.51
2022-12-08T14:21:43.835Z,3.40
2022-12-08T14:24:11.922Z,3.33
2022-12-08T14:26:38.786Z,3.32
2022-12-08T14:29:07.867Z,3.32
2022-12-08T14:31:36.180Z,3.28
2022-12-08T14:34:03.192Z,3.23
2022-12-08T14:36:32.048Z,3.19
2022-12-08T14:38:59.115Z,3.21
2022-12-08T14:41:28.119Z,3.31
2022-12-08T14:44:00.211Z,3.47
2022-12-08T14:46:28.206Z,3.60
2022-12-08T14:48:58.158Z,3.78
2022-12-08T14:51:30.558Z,3.89
2022-12-08T14:54:00.242Z,3.98
2022-12-08T14:56:32.979Z,3.93
2022-12-08T14:59:06.368Z,3.82
2022-12-08T15:01:34.768Z,3.70
2022-12-08T15:04:09.563Z,3.55
2022-12-08T15:06:36.903Z,3.40
2022-12-08T15:09:16.721Z,3.28
2022-12-08T15:11:43.757Z,3.17
2022-12-08T15:14:29.056Z,3.14
2022-12-08T15:16:55.938Z,3.14
2022-12-08T15:19:28.511Z,3.17
2022-12-08T15:21:57.634Z,3.15
2022-12-08T15:24:26.386Z,3.15
2022-12-08T15:26:53.863Z,3.08
2022-12-08T15:29:23.365Z,2.97
2022-12-08T15:31:52.431Z,2.96
2022-12-08T15:34:19.536Z,2.89
2022-12-08T15:36:49.179Z,2.87
2022-12-08T15:39:28.438Z,2.77
2022-12-08T15:41:55.447Z,2.71
2022-12-08T15:44:22.930Z,2.63
2022-12-08T15:46:50.196Z,2.61
2022-12-08T15:49:19.107Z,2.52
2022-12-08T15:51:47.804Z,2.46
2022-12-08T15:54:15.138Z,2.40
2022-12-08T15:57:02.959Z,2.34
2022-12-08T15:59:32.151Z,2.32
2022-12-08T16:01:59.426Z,2.24
2022-12-08T16:07:22.366Z,2.10
2022-12-08T16:09:49.563Z,2.18
2022-12-08T16:18:15.955Z,2.15
2022-12-08T16:21:07.577Z,2.21
2022-12-08T16:23:42.976Z,2.05
2022-12-08T16:26:28.625Z,1.95
2022-12-08T16:29:00.142Z,1.81
2022-12-08T16:31:27.061Z,1.70
2022-12-08T16:33:53.905Z,1.66
2022-12-08T16:36:20.729Z,1.55
2022-12-08T16:38:48.883Z,1.49
2022-12-08T16:41:35.659Z,1.44
2022-12-08T16:44:03.160Z,1.38
2022-12-08T16:46:30.199Z,1.36
2022-12-08T16:48:59.707Z,1.31
2022-12-08T16:51:27.524Z,1.27
2022-12-08T16:53:57.112Z,1.21
2022-12-08T16:56:30.611Z,1.18
2022-12-08T16:58:59.539Z,1.23
2022-12-08T17:01:26.500Z,1.17
2022-12-08T17:04:22.522Z,1.11
2022-12-08T17:06:40.474Z,1.13
2022-12-08T17:09:08.837Z,1.01
2022-12-08T17:11:42.387Z,0.96
2022-12-08T17:14:10.257Z,0.85
2022-12-08T17:16:37.293Z,0.81
2022-12-08T17:19:04.228Z,0.68
2022-12-08T17:21:31.078Z,0.60
2022-12-08T17:23:58.080Z,0.61
2022-12-08T17:26:26.275Z,0.62
2022-12-08T17:29:01.529Z,0.60
2022-12-08T17:31:30.619Z,0.61
2022-12-08T17:33:58.540Z,0.68
2022-12-08T17:36:25.427Z,0.69
2022-12-08T17:38:52.290Z,0.70
2022-12-08T17:41:19.085Z,0.73
2022-12-08T17:43:47.750Z,0.78
2022-12-08T17:46:17.728Z,0.86
2022-12-08T17:48:44.737Z,0.90
2022-12-08T17:51:11.579Z,1.01
2022-12-08T17:53:40.854Z,1.17
2022-12-08T17:56:15.195Z,1.30
2022-12-08T17:58:42.209Z,1.41
2022-12-08T18:01:11.371Z,1.52
2022-12-08T18:03:39.045Z,1.62
2022-12-08T18:06:07.238Z,1.73
2022-12-08T18:08:34.760Z,1.81
2022-12-08T18:11:01.829Z,1.87
2022-12-08T18:13:29.056Z,1.96
2022-12-08T18:15:55.948Z,2.00
2022-12-08T18:18:24.129Z,2.03
2022-12-08T18:20:50.962Z,2.02
2022-12-08T18:23:18.831Z,2.06
2022-12-08T18:25:45.848Z,2.09
2022-12-08T18:28:12.683Z,2.14
2022-12-08T18:30:40.410Z,2.16
2022-12-08T18:33:07.837Z,2.12
2022-12-08T18:35:39.027Z,2.13
2022-12-08T18:38:05.909Z,2.15
2022-12-08T18:40:32.747Z,2.15
2022-12-08T18:42:59.622Z,2.15
2022-12-08T18:45:26.461Z,2.08
2022-12-08T18:47:53.373Z,2.06
2022-12-08T18:50:20.458Z,2.03
2022-12-08T18:52:48.838Z,1.95
2022-12-08T18:55:15.999Z,1.94
2022-12-08T18:57:43.347Z,2.00
2022-12-08T19:00:12.441Z,2.04
2022-12-08T19:02:39.708Z,2.03
2022-12-08T19:05:07.973Z,2.03
2022-12-08T19:07:35.258Z,2.03
2022-12-08T19:10:04.208Z,2.01
2022-12-08T19:12:31.607Z,2.05
2022-12-08T19:14:58.555Z,2.08
2022-12-08T19:17:26.002Z,2.12
2022-12-08T19:19:52.867Z,2.14
2022-12-08T19:22:19.774Z,2.15
2022-12-08T19:24:46.571Z,2.15
2022-12-08T19:27:14.818Z,2.18
2022-12-08T19:29:41.669Z,2.17
2022-12-08T19:32:08.603Z,2.19
2022-12-08T19:34:35.446Z,2.22
2022-12-08T19:37:02.247Z,2.16
2022-12-08T19:39:47.476Z,2.08
2022-12-08T19:42:36.320Z,2.12
2022-12-08T19:45:06.380Z,2.13
2022-12-08T19:47:33.517Z,2.18
2022-12-08T19:50:18.756Z,2.11
2022-12-08T19:52:45.723Z,2.08
2022-12-08T19:55:13.544Z,2.03
2022-12-08T19:57:41.885Z,1.92
2022-12-08T20:00:10.606Z,1.84
2022-12-08T20:02:37.811Z,1.71
2022-12-08T20:05:05.548Z,1.64
2022-12-08T20:07:32.794Z,1.51
2022-12-08T20:09:59.646Z,1.41
2022-12-08T20:12:26.524Z,1.23
2022-12-08T20:14:54.717Z,1.14
2022-12-08T20:17:21.597Z,1.05
2022-12-08T20:19:48.745Z,1.01
2022-12-08T20:22:15.563Z,0.91
2022-12-08T20:24:42.554Z,0.86
2022-12-08T20:27:09.515Z,0.80
2022-12-08T20:29:36.368Z,0.79
2022-12-08T20:32:04.845Z,0.76
2022-12-08T20:34:32.167Z,0.66
2022-12-08T20:36:59.065Z,0.62
2022-12-08T20:39:25.955Z,0.61
2022-12-08T20:41:54.578Z,0.51
2022-12-08T20:44:21.576Z,0.50
2022-12-08T20:46:49.785Z,0.44
2022-12-08T20:49:18.188Z,0.40
2022-12-08T20:51:45.281Z,0.42
2022-12-08T20:54:12.223Z,0.36
2022-12-08T20:56:44.759Z,0.35
2022-12-08T20:59:16.902Z,0.23
2022-12-08T21:01:43.902Z,0.19
2022-12-08T21:04:12.350Z,0.18
2022-12-08T21:06:40.925Z,0.10
2022-12-08T21:09:09.043Z,0.02
2022-12-08T21:11:36.233Z,-0.04
2022-12-08T21:14:03.563Z,-0.04
2022-12-08T21:16:30.676Z,-0.04
2022-12-08T21:18:57.639Z,-0.05
2022-12-08T21:21:24.486Z,-0.08
2022-12-08T21:23:52.704Z,-0.03
2022-12-08T21:26:21.750Z,-0.04
2022-12-08T21:28:48.819Z,-0.05
2022-12-08T21:31:17.910Z,0.02
2022-12-08T21:33:45.120Z,0.04
2022-12-08T21:36:14.126Z,0.07
2022-12-08T21:38:41.544Z,0.16
2022-12-08T21:41:12.926Z,0.22
2022-12-08T21:43:40.104Z,0.23
2022-12-08T21:46:07.012Z,0.25
2022-12-08T21:48:34.089Z,0.21
2022-12-08T21:51:04.834Z,0.22
2022-12-08T21:53:32.068Z,0.17
2022-12-08T21:55:59.153Z,0.06
2022-12-08T21:58:28.240Z,0.03
2022-12-08T22:00:55.193Z,0.10
2022-12-08T22:03:22.203Z,0.25
2022-12-08T22:05:49.348Z,0.25
2022-12-08T22:08:16.369Z,0.46
2022-12-08T22:10:47.329Z,0.65
2022-12-08T22:13:14.278Z,0.66
2022-12-08T22:15:42.605Z,0.64
2022-12-08T22:18:09.622Z,0.49
2022-12-08T22:20:42.344Z,0.54
2022-12-08T22:23:11.034Z,0.45
2022-12-08T22:25:37.999Z,0.45
2022-12-08T22:28:05.459Z,0.37
2022-12-08T22:30:38.714Z,0.39
2022-12-08T22:33:07.332Z,0.35
2022-12-08T22:35:34.233Z,0.27
2022-12-08T22:38:01.090Z,0.23
2022-12-08T22:40:27.860Z,0.10
2022-12-08T22:42:54.780Z,-0.05
2022-12-08T22:45:21.892Z,-0.07
2022-12-08T22:47:49.137Z,-0.16
2022-12-08T22:50:17.368Z,-0.18
2022-12-08T22:52:44.197Z,-0.12
2022-12-08T22:55:10.967Z,-0.15
2022-12-08T22:57:37.846Z,-0.10
2022-12-08T23:00:06.176Z,-0.12
2022-12-08T23:02:33.504Z,-0.15
2022-12-08T23:05:00.559Z,-0.11
2022-12-08T23:07:29.001Z,-0.15
2022-12-08T23:09:56.091Z,-0.23
2022-12-08T23:12:22.950Z,-0.25
2022-12-08T23:14:49.971Z,-0.27
2022-12-08T23:17:17.122Z,-0.31
2022-12-08T23:19:44.039Z,-0.31
2022-12-08T23:22:11.085Z,-0.31
2022-12-08T23:24:39.965Z,-0.35
2022-12-08T23:27:06.929Z,-0.41
2022-12-08T23:29:33.913Z,-0.44
2022-12-08T23:32:00.835Z,-0.32
2022-12-08T23:34:27.723Z,-0.20
2022-12-08T23:36:54.752Z,-0.15
2022-12-08T23:39:24.289Z,-0.16
2022-12-08T23:41:52.758Z,-0.14
2022-12-08T23:44:19.725Z,-0.01
2022-12-08T23:46:46.697Z,0.05
2022-12-08T23:49:13.816Z,0.00
2022-12-08T23:51:40.941Z,0.11
2022-12-08T23:54:08.353Z,0.06
2022-12-08T23:56:35.441Z,0.12
2022-12-08T23:59:04.193Z,0.25
